createdAt,value
2022-09-04T00:03:28.522Z,16.95
2022-09-04T00:08:47.874Z,16.99
2022-09-04T00:13:53.815Z,16.92
2022-09-04T00:18:59.661Z,16.81
2022-09-04T00:24:00.976Z,16.66
2022-09-04T00:29:07.006Z,16.53
2022-09-04T00:34:18.941Z,16.35
2022-09-04T00:39:20.806Z,16.40
2022-09-04T00:44:36.845Z,16.13
2022-09-04T00:49:57.535Z,16.29
2022-09-04T00:55:10.054Z,16.51
2022-09-04T01:00:14.692Z,16.65
2022-09-04T01:05:26.069Z,16.68
2022-09-04T01:10:35.853Z,16.66
2022-09-04T01:15:42.428Z,16.68
2022-09-04T01:21:06.593Z,16.70
2022-09-04T01:26:22.807Z,16.82
2022-09-04T01:31:27.815Z,16.90
2022-09-04T01:36:36.920Z,16.76
2022-09-04T01:41:40.716Z,16.82
2022-09-04T01:46:48.270Z,16.80
2022-09-04T01:51:56.241Z,16.62
2022-09-04T01:57:09.507Z,16.68
2022-09-04T02:02:16.903Z,16.76
2022-09-04T02:07:27.333Z,16.76
2022-09-04T02:12:36.086Z,16.85
2022-09-04T02:17:43.540Z,16.81
2022-09-04T02:22:50.742Z,16.79
2022-09-04T02:28:01.013Z,16.87
2022-09-04T02:33:08.603Z,16.77
2022-09-04T02:38:19.415Z,16.88
2022-09-04T02:43:35.763Z,17.06
2022-09-04T02:48:40.409Z,17.25
2022-09-04T02:53:51.281Z,16.98
2022-09-04T02:59:07.699Z,16.80
2022-09-04T03:04:14.637Z,16.77
2022-09-04T03:09:19.082Z,16.52
2022-09-04T03:14:24.905Z,16.56
2022-09-04T03:19:29.471Z,16.46
2022-09-04T03:24:33.164Z,16.58
2022-09-04T03:29:41.150Z,16.60
2022-09-04T03:34:49.211Z,16.59
2022-09-04T03:40:04.644Z,16.42
2022-09-04T03:45:16.607Z,16.32
2022-09-04T03:50:24.112Z,16.31
2022-09-04T03:55:36.629Z,16.23
2022-09-04T04:00:49.310Z,16.20
2022-09-04T04:05:58.861Z,16.16
2022-09-04T04:11:08.403Z,16.22
2022-09-04T04:16:31.330Z,16.26
2022-09-04T04:21:50.821Z,16.29
2022-09-04T04:27:04.425Z,16.35
2022-09-04T04:32:19.455Z,16.31
2022-09-04T04:37:26.874Z,16.23
2022-09-04T04:42:30.285Z,16.49
2022-09-04T04:47:53.013Z,16.32
2022-09-04T04:52:57.370Z,16.60
2022-09-04T04:58:19.154Z,16.63
2022-09-04T05:03:27.295Z,16.82
2022-09-04T05:08:40.277Z,17.01
2022-09-04T05:13:52.960Z,17.22
2022-09-04T05:18:59.921Z,17.33
2022-09-04T05:24:03.138Z,17.41
2022-09-04T05:29:06.409Z,17.61
2022-09-04T05:34:11.185Z,17.45
2022-09-04T05:39:14.619Z,17.88
2022-09-04T05:44:32.136Z,18.00
2022-09-04T05:49:48.050Z,18.24
2022-09-04T05:55:02.796Z,18.17
2022-09-04T06:00:09.582Z,18.43
2022-09-04T06:05:37.732Z,18.66
2022-09-04T06:10:47.957Z,19.13
2022-09-04T06:16:00.376Z,19.64
2022-09-04T06:21:31.986Z,19.71
2022-09-04T06:26:46.901Z,20.08
2022-09-04T06:32:04.549Z,20.95
2022-09-04T06:37:16.813Z,21.58
2022-09-04T06:42:32.798Z,22.08
2022-09-04T06:47:42.733Z,22.70
2022-09-04T06:52:48.663Z,22.78
2022-09-04T06:58:07.643Z,23.40
2022-09-04T07:03:35.628Z,24.39
2022-09-04T07:08:46.994Z,25.00
2022-09-04T07:14:17.559Z,26.19
2022-09-04T07:19:32.987Z,24.44
2022-09-04T07:24:58.217Z,25.95
2022-09-04T07:30:00.536Z,26.58
2022-09-04T07:35:04.335Z,25.55
2022-09-04T07:40:11.550Z,26.48
2022-09-04T07:45:22.648Z,26.63
2022-09-04T07:50:26.187Z,25.97
2022-09-04T07:55:37.874Z,26.27
2022-09-04T08:00:48.823Z,26.40
2022-09-04T08:05:53.478Z,26.60
2022-09-04T08:11:23.843Z,27.79
2022-09-04T08:16:29.748Z,27.58
2022-09-04T08:21:31.021Z,28.09
2022-09-04T08:26:39.482Z,28.35
2022-09-04T08:31:44.133Z,28.73
2022-09-04T08:36:49.068Z,29.48
2022-09-04T08:42:20.869Z,29.22
2022-09-04T08:48:09.403Z,28.61
2022-09-04T08:53:31.155Z,26.86
2022-09-04T08:59:01.527Z,25.49
2022-09-04T09:04:36.709Z,25.51
2022-09-04T09:10:03.004Z,25.36
2022-09-04T09:15:34.217Z,24.71
2022-09-04T09:20:45.693Z,25.26
2022-09-04T09:25:51.286Z,25.53
2022-09-04T09:31:18.193Z,27.28
2022-09-04T09:36:36.835Z,28.19
2022-09-04T09:42:23.539Z,27.91
2022-09-04T09:47:51.065Z,26.97
2022-09-04T09:53:18.962Z,26.34
2022-09-04T09:58:44.541Z,25.63
2022-09-04T10:03:51.349Z,25.89
2022-09-04T10:09:25.179Z,25.76
2022-09-04T10:14:56.451Z,25.92
2022-09-04T10:20:30.057Z,27.01
2022-09-04T10:26:00.641Z,26.63
2022-09-04T10:31:49.894Z,26.88
2022-09-04T10:36:58.113Z,27.49
2022-09-04T10:42:23.350Z,28.50
2022-09-04T10:47:43.344Z,28.76
2022-09-04T10:53:21.379Z,29.57
2022-09-04T10:58:40.067Z,28.43
2022-09-04T11:03:54.486Z,28.64
2022-09-04T11:09:28.527Z,28.40
2022-09-04T11:14:58.684Z,28.49
2022-09-04T11:20:45.125Z,28.10
2022-09-04T11:26:24.002Z,28.13
2022-09-04T11:31:35.961Z,27.76
2022-09-04T11:37:05.437Z,28.15
2022-09-04T11:42:28.890Z,26.75
2022-09-04T11:47:47.066Z,26.89
2022-09-04T11:53:15.617Z,27.09
2022-09-04T11:58:37.027Z,27.66
2022-09-04T12:04:04.300Z,28.11
2022-09-04T12:09:44.797Z,27.09
2022-09-04T12:15:13.510Z,26.93
2022-09-04T12:20:37.699Z,26.71
2022-09-04T12:26:07.028Z,26.35
2022-09-04T12:31:35.902Z,26.38
2022-09-04T12:37:03.629Z,25.86
2022-09-04T12:42:08.712Z,25.72
2022-09-04T12:47:28.543Z,26.13
2022-09-04T12:52:42.114Z,26.34
2022-09-04T12:57:52.533Z,26.47
2022-09-04T13:03:04.922Z,27.84
2022-09-04T13:08:19.570Z,28.26
2022-09-04T13:13:29.094Z,27.35
2022-09-04T13:18:58.828Z,26.96
2022-09-04T13:24:11.321Z,26.50
2022-09-04T13:29:23.377Z,26.31
2022-09-04T13:34:35.622Z,27.20
2022-09-04T13:40:01.757Z,27.06
2022-09-04T13:45:05.737Z,27.41
2022-09-04T13:50:12.091Z,27.25
2022-09-04T13:55:18.034Z,27.71
2022-09-04T14:00:17.140Z,27.53
2022-09-04T14:05:23.221Z,27.18
2022-09-04T14:10:25.832Z,27.50
2022-09-04T14:15:48.495Z,27.50
2022-09-04T14:21:01.506Z,26.75
2022-09-04T14:26:07.443Z,26.20
2022-09-04T14:31:14.215Z,25.83
2022-09-04T14:36:27.297Z,25.51
2022-09-04T14:41:37.197Z,25.48
2022-09-04T14:46:41.372Z,25.41
2022-09-04T14:51:49.665Z,25.16
2022-09-04T14:56:50.433Z,24.85
2022-09-04T15:02:14.885Z,24.73
2022-09-04T15:07:30.894Z,24.70
2022-09-04T15:12:35.485Z,24.68
2022-09-04T15:17:37.819Z,24.54
2022-09-04T15:22:43.431Z,24.51
2022-09-04T15:27:51.255Z,24.42
2022-09-04T15:32:50.842Z,24.40
2022-09-04T15:37:52.966Z,24.51
2022-09-04T15:43:00.322Z,24.26
2022-09-04T15:48:11.296Z,24.22
2022-09-04T15:53:27.301Z,24.15
2022-09-04T15:58:30.494Z,23.91
2022-09-04T16:03:38.057Z,23.80
2022-09-04T16:08:47.135Z,23.56
2022-09-04T16:13:56.915Z,23.49
2022-09-04T16:19:09.166Z,23.32
2022-09-04T16:24:13.177Z,23.23
2022-09-04T16:29:25.797Z,23.17
2022-09-04T16:34:28.337Z,23.00
2022-09-04T16:39:33.444Z,22.87
2022-09-04T16:44:37.561Z,22.68
2022-09-04T16:49:47.183Z,22.65
2022-09-04T16:54:50.589Z,22.71
2022-09-04T16:59:53.563Z,22.65
2022-09-04T17:04:55.817Z,22.71
2022-09-04T17:10:02.893Z,22.68
2022-09-04T17:15:14.849Z,22.65
2022-09-04T17:20:23.797Z,22.49
2022-09-04T17:29:15.600Z,22.43
2022-09-04T17:31:14.539Z,22.31
2022-09-04T17:40:50.562Z,22.31
2022-09-04T17:42:03.253Z,22.29
2022-09-04T17:47:11.944Z,22.24
2022-09-04T17:52:11.674Z,21.95
2022-09-04T17:57:16.167Z,21.92
2022-09-04T18:02:21.123Z,21.81
2022-09-04T18:07:44.741Z,21.81
2022-09-04T18:12:53.663Z,21.93
2022-09-04T18:17:59.933Z,21.84
2022-09-04T18:23:21.566Z,21.75
2022-09-04T18:28:28.179Z,21.62
2022-09-04T18:37:18.795Z,21.30
2022-09-04T18:39:08.545Z,21.27
2022-09-04T18:50:25.410Z,21.23
2022-09-04T18:50:49.244Z,21.26
2022-09-04T18:54:56.232Z,21.24
2022-09-04T19:00:08.176Z,21.44
2022-09-04T19:05:11.209Z,21.32
2022-09-04T19:10:17.632Z,21.14
2022-09-04T19:15:49.115Z,21.21
2022-09-04T19:20:51.746Z,21.10
2022-09-04T19:25:54.883Z,20.75
2022-09-04T19:30:58.963Z,20.59
2022-09-04T19:36:03.616Z,20.55
2022-09-04T19:46:19.715Z,20.53
2022-09-04T19:46:46.479Z,20.54
2022-09-04T19:53:32.906Z,20.54
2022-09-04T19:57:32.582Z,20.31
2022-09-04T20:02:40.409Z,20.05
2022-09-04T20:07:47.255Z,20.08
2022-09-04T20:12:50.632Z,19.90
2022-09-04T20:18:05.443Z,19.90
2022-09-04T20:23:34.777Z,19.96
2022-09-04T20:28:49.531Z,19.88
2022-09-04T20:33:52.185Z,19.81
2022-09-04T20:38:58.212Z,19.64
2022-09-04T20:44:04.644Z,19.53
2022-09-04T20:52:55.883Z,19.37
2022-09-04T20:55:12.667Z,19.36
2022-09-04T21:03:09.650Z,19.38
2022-09-04T21:05:50.552Z,19.35
2022-09-04T21:11:00.977Z,19.44
2022-09-04T21:16:13.526Z,19.45
2022-09-04T21:21:32.625Z,19.45
2022-09-04T21:26:45.370Z,19.33
2022-09-04T21:32:11.287Z,19.26
2022-09-04T21:37:18.287Z,19.24
2022-09-04T21:42:43.027Z,19.16
2022-09-04T21:48:18.099Z,19.11
2022-09-04T21:53:43.503Z,18.91
2022-09-04T22:02:27.650Z,18.87
2022-09-04T22:04:23.060Z,18.63
2022-09-04T22:13:35.215Z,18.64
2022-09-04T22:14:55.532Z,18.62
2022-09-04T22:20:34.785Z,18.58
2022-09-04T22:26:09.083Z,18.50
2022-09-04T22:31:37.805Z,18.58
2022-09-04T22:37:02.170Z,18.60
2022-09-04T22:42:32.787Z,18.54
2022-09-04T22:47:50.162Z,18.50
2022-09-04T22:53:04.662Z,18.49
2022-09-04T22:58:32.162Z,18.36
2022-09-04T23:03:46.225Z,18.36
2022-09-04T23:13:48.828Z,18.26
2022-09-04T23:15:08.553Z,18.12
2022-09-04T23:26:33.703Z,17.96
2022-09-04T23:26:46.442Z,17.91
2022-09-04T23:32:06.960Z,17.72
2022-09-04T23:37:25.811Z,17.67
2022-09-04T23:42:48.900Z,17.66
2022-09-04T23:48:06.418Z,17.55
2022-09-04T23:53:15.786Z,17.57
2022-09-04T23:58:47.182Z,17.48
